sensor_id;sensor_type;location;lat;lon;timestamp;temperature;humidity
19037;DHT22;9651;49.138;8.900;2023-09-08T00:02:32;19.00;99.90
19037;DHT22;9651;49.138;8.900;2023-09-08T00:06:34;18.90;99.90
19037;DHT22;9651;49.138;8.900;2023-09-08T00:10:35;18.90;99.90
19037;DHT22;9651;49.138;8.900;2023-09-08T00:14:37;18.80;99.90
19037;DHT22;9651;49.138;8.900;2023-09-08T00:18:40;18.70;99.90
19037;DHT22;9651;49.138;8.900;2023-09-08T00:22:42;18.60;99.90
19037;DHT22;9651;49.138;8.900;2023-09-08T00:26:44;18.50;99.90
19037;DHT22;9651;49.138;8.900;2023-09-08T00:30:46;18.50;99.90
19037;DHT22;9651;49.138;8.900;2023-09-08T00:34:49;18.40;99.90
19037;DHT22;9651;49.138;8.900;2023-09-08T00:38:51;18.30;99.90
19037;DHT22;9651;49.138;8.900;2023-09-08T00:42:53;18.30;99.90
19037;DHT22;9651;49.138;8.900;2023-09-08T00:46:55;18.30;99.90
19037;DHT22;9651;49.138;8.900;2023-09-08T00:50:59;18.30;99.90
19037;DHT22;9651;49.138;8.900;2023-09-08T00:55:01;18.20;99.90
19037;DHT22;9651;49.138;8.900;2023-09-08T00:59:04;18.20;99.90
19037;DHT22;9651;49.138;8.900;2023-09-08T01:03:06;18.10;99.90
19037;DHT22;9651;49.138;8.900;2023-09-08T01:07:10;18.00;99.90
19037;DHT22;9651;49.138;8.900;2023-09-08T01:11:14;18.00;99.90
19037;DHT22;9651;49.138;8.900;2023-09-08T01:15:15;18.00;99.90
19037;DHT22;9651;49.138;8.900;2023-09-08T01:19:18;18.00;99.90
19037;DHT22;9651;49.138;8.900;2023-09-08T01:23:30;18.00;99.90
19037;DHT22;9651;49.138;8.900;2023-09-08T01:27:37;17.90;99.90
19037;DHT22;9651;49.138;8.900;2023-09-08T01:31:40;17.90;99.90
19037;DHT22;9651;49.138;8.900;2023-09-08T01:35:42;17.80;99.90
19037;DHT22;9651;49.138;8.900;2023-09-08T01:39:44;17.80;99.90
19037;DHT22;9651;49.138;8.900;2023-09-08T01:43:47;17.80;99.90
19037;DHT22;9651;49.138;8.900;2023-09-08T01:47:49;17.80;99.90
19037;DHT22;9651;49.138;8.900;2023-09-08T01:51:51;17.80;99.90
19037;DHT22;9651;49.138;8.900;2023-09-08T01:55:53;17.70;99.90
19037;DHT22;9651;49.138;8.900;2023-09-08T01:59:56;17.70;99.90
19037;DHT22;9651;49.138;8.900;2023-09-08T02:03:59;17.70;99.90
19037;DHT22;9651;49.138;8.900;2023-09-08T02:08:01;17.70;99.90
19037;DHT22;9651;49.138;8.900;2023-09-08T02:12:06;17.60;99.90
19037;DHT22;9651;49.138;8.900;2023-09-08T02:16:14;17.50;99.90
19037;DHT22;9651;49.138;8.900;2023-09-08T02:20:16;17.50;99.90
19037;DHT22;9651;49.138;8.900;2023-09-08T02:24:18;17.50;99.90
19037;DHT22;9651;49.138;8.900;2023-09-08T02:28:19;17.50;99.90
19037;DHT22;9651;49.138;8.900;2023-09-08T02:32:23;17.40;99.90
19037;DHT22;9651;49.138;8.900;2023-09-08T02:36:25;17.40;99.90
19037;DHT22;9651;49.138;8.900;2023-09-08T02:40:28;17.40;99.90
19037;DHT22;9651;49.138;8.900;2023-09-08T02:44:32;17.40;99.90
19037;DHT22;9651;49.138;8.900;2023-09-08T02:48:35;17.30;99.90
19037;DHT22;9651;49.138;8.900;2023-09-08T02:52:37;17.30;99.90
19037;DHT22;9651;49.138;8.900;2023-09-08T02:56:39;17.30;99.90
19037;DHT22;9651;49.138;8.900;2023-09-08T03:00:41;17.30;99.90
19037;DHT22;9651;49.138;8.900;2023-09-08T03:04:44;17.30;99.90
19037;DHT22;9651;49.138;8.900;2023-09-08T03:08:46;17.30;99.90
19037;DHT22;9651;49.138;8.900;2023-09-08T03:12:49;17.20;99.90
19037;DHT22;9651;49.138;8.900;2023-09-08T03:16:51;17.20;99.90
19037;DHT22;9651;49.138;8.900;2023-09-08T03:20:54;17.10;99.90
19037;DHT22;9651;49.138;8.900;2023-09-08T03:24:56;17.10;99.90
19037;DHT22;9651;49.138;8.900;2023-09-08T03:28:58;17.00;99.90
19037;DHT22;9651;49.138;8.900;2023-09-08T03:33:00;17.00;99.90
19037;DHT22;9651;49.138;8.900;2023-09-08T03:37:04;17.00;99.90
19037;DHT22;9651;49.138;8.900;2023-09-08T03:41:06;16.90;99.90
19037;DHT22;9651;49.138;8.900;2023-09-08T03:45:09;16.90;99.90
19037;DHT22;9651;49.138;8.900;2023-09-08T03:49:11;16.80;99.90
19037;DHT22;9651;49.138;8.900;2023-09-08T03:53:14;16.80;99.90
19037;DHT22;9651;49.138;8.900;2023-09-08T03:57:17;16.80;99.90
19037;DHT22;9651;49.138;8.900;2023-09-08T04:01:19;16.80;99.90
19037;DHT22;9651;49.138;8.900;2023-09-08T04:05:21;16.70;99.90
19037;DHT22;9651;49.138;8.900;2023-09-08T04:09:24;16.70;99.90
19037;DHT22;9651;49.138;8.900;2023-09-08T04:13:26;16.70;99.90
19037;DHT22;9651;49.138;8.900;2023-09-08T04:17:28;16.70;99.90
19037;DHT22;9651;49.138;8.900;2023-09-08T04:21:30;16.60;99.90
19037;DHT22;9651;49.138;8.900;2023-09-08T04:25:34;16.60;99.90
19037;DHT22;9651;49.138;8.900;2023-09-08T04:29:37;16.60;99.90
19037;DHT22;9651;49.138;8.900;2023-09-08T04:33:39;16.60;99.90
19037;DHT22;9651;49.138;8.900;2023-09-08T04:37:40;16.50;99.90
19037;DHT22;9651;49.138;8.900;2023-09-08T04:41:44;16.50;99.90
19037;DHT22;9651;49.138;8.900;2023-09-08T04:45:46;16.50;99.90
19037;DHT22;9651;49.138;8.900;2023-09-08T04:49:49;16.50;99.90
19037;DHT22;9651;49.138;8.900;2023-09-08T04:53:50;16.50;99.90
19037;DHT22;9651;49.138;8.900;2023-09-08T04:57:54;16.50;99.90
19037;DHT22;9651;49.138;8.900;2023-09-08T05:01:56;16.40;99.90
19037;DHT22;9651;49.138;8.900;2023-09-08T05:05:58;16.40;99.90
19037;DHT22;9651;49.138;8.900;2023-09-08T05:10:02;16.30;99.90
19037;DHT22;9651;49.138;8.900;2023-09-08T05:14:09;16.30;99.90
19037;DHT22;9651;49.138;8.900;2023-09-08T05:18:11;16.30;99.90
19037;DHT22;9651;49.138;8.900;2023-09-08T05:22:13;16.40;99.90
19037;DHT22;9651;49.138;8.900;2023-09-08T05:26:15;16.40;99.90
19037;DHT22;9651;49.138;8.900;2023-09-08T05:30:19;16.40;99.90
19037;DHT22;9651;49.138;8.900;2023-09-08T05:34:21;16.50;99.90
19037;DHT22;9651;49.138;8.900;2023-09-08T05:38:23;16.60;99.90
19037;DHT22;9651;49.138;8.900;2023-09-08T05:42:26;16.70;99.90
19037;DHT22;9651;49.138;8.900;2023-09-08T05:46:29;16.80;99.90
19037;DHT22;9651;49.138;8.900;2023-09-08T05:50:32;17.00;99.90
19037;DHT22;9651;49.138;8.900;2023-09-08T05:54:34;17.30;99.90
19037;DHT22;9651;49.138;8.900;2023-09-08T05:58:36;17.60;99.90
19037;DHT22;9651;49.138;8.900;2023-09-08T06:02:39;18.00;99.90
19037;DHT22;9651;49.138;8.900;2023-09-08T06:06:44;18.40;99.90
19037;DHT22;9651;49.138;8.900;2023-09-08T06:10:49;18.70;99.90
19037;DHT22;9651;49.138;8.900;2023-09-08T06:14:51;19.00;99.90
19037;DHT22;9651;49.138;8.900;2023-09-08T06:18:55;19.40;99.90
19037;DHT22;9651;49.138;8.900;2023-09-08T06:22:57;19.70;99.90
19037;DHT22;9651;49.138;8.900;2023-09-08T06:27:00;20.00;99.90
19037;DHT22;9651;49.138;8.900;2023-09-08T06:31:03;20.30;99.90
19037;DHT22;9651;49.138;8.900;2023-09-08T06:35:07;20.50;99.90
19037;DHT22;9651;49.138;8.900;2023-09-08T06:39:09;20.70;99.90
19037;DHT22;9651;49.138;8.900;2023-09-08T06:43:12;20.90;99.90
19037;DHT22;9651;49.138;8.900;2023-09-08T06:47:24;20.80;99.90
19037;DHT22;9651;49.138;8.900;2023-09-08T06:51:28;21.00;99.90
19037;DHT22;9651;49.138;8.900;2023-09-08T06:55:29;21.40;99.90
19037;DHT22;9651;49.138;8.900;2023-09-08T06:59:32;21.80;99.90
19037;DHT22;9651;49.138;8.900;2023-09-08T07:03:35;22.00;99.90
19037;DHT22;9651;49.138;8.900;2023-09-08T07:07:41;22.30;99.90
19037;DHT22;9651;49.138;8.900;2023-09-08T07:11:43;22.90;99.90
19037;DHT22;9651;49.138;8.900;2023-09-08T07:15:45;23.50;99.90
19037;DHT22;9651;49.138;8.900;2023-09-08T07:19:47;23.80;99.90
19037;DHT22;9651;49.138;8.900;2023-09-08T07:23:51;24.30;99.90
19037;DHT22;9651;49.138;8.900;2023-09-08T07:27:53;24.90;99.90
19037;DHT22;9651;49.138;8.900;2023-09-08T07:31:56;25.10;99.90
19037;DHT22;9651;49.138;8.900;2023-09-08T07:36:04;25.30;99.90
19037;DHT22;9651;49.138;8.900;2023-09-08T07:40:09;25.30;99.90
19037;DHT22;9651;49.138;8.900;2023-09-08T07:44:12;25.70;99.90
19037;DHT22;9651;49.138;8.900;2023-09-08T07:48:15;26.10;99.90
19037;DHT22;9651;49.138;8.900;2023-09-08T07:52:17;26.40;99.90
19037;DHT22;9651;49.138;8.900;2023-09-08T07:56:20;26.10;99.90
19037;DHT22;9651;49.138;8.900;2023-09-08T08:00:22;26.80;99.90
19037;DHT22;9651;49.138;8.900;2023-09-08T08:04:24;27.40;99.90
19037;DHT22;9651;49.138;8.900;2023-09-08T08:08:26;27.30;99.90
19037;DHT22;9651;49.138;8.900;2023-09-08T08:12:29;27.60;99.90
19037;DHT22;9651;49.138;8.900;2023-09-08T08:16:31;27.80;99.90
19037;DHT22;9651;49.138;8.900;2023-09-08T08:20:33;28.30;99.90
19037;DHT22;9651;49.138;8.900;2023-09-08T08:24:38;29.20;99.90
19037;DHT22;9651;49.138;8.900;2023-09-08T08:28:42;29.50;99.90
19037;DHT22;9651;49.138;8.900;2023-09-08T08:32:43;30.60;99.90
19037;DHT22;9651;49.138;8.900;2023-09-08T08:36:46;31.50;99.90
19037;DHT22;9651;49.138;8.900;2023-09-08T08:40:48;31.80;99.80
19037;DHT22;9651;49.138;8.900;2023-09-08T08:44:51;32.20;98.60
19037;DHT22;9651;49.138;8.900;2023-09-08T08:48:53;32.80;97.60
19037;DHT22;9651;49.138;8.900;2023-09-08T08:52:56;33.30;96.30
19037;DHT22;9651;49.138;8.900;2023-09-08T08:56:59;33.70;95.10
19037;DHT22;9651;49.138;8.900;2023-09-08T09:01:03;34.10;93.70
19037;DHT22;9651;49.138;8.900;2023-09-08T09:05:06;33.30;93.90
19037;DHT22;9651;49.138;8.900;2023-09-08T09:09:08;33.50;93.70
19037;DHT22;9651;49.138;8.900;2023-09-08T09:13:11;34.40;92.80
19037;DHT22;9651;49.138;8.900;2023-09-08T09:17:15;34.00;92.00
19037;DHT22;9651;49.138;8.900;2023-09-08T09:21:17;34.40;91.30
19037;DHT22;9651;49.138;8.900;2023-09-08T09:25:22;33.90;91.60
19037;DHT22;9651;49.138;8.900;2023-09-08T09:29:27;34.10;90.90
19037;DHT22;9651;49.138;8.900;2023-09-08T09:33:31;33.90;90.60
19037;DHT22;9651;49.138;8.900;2023-09-08T09:37:33;34.80;90.60
19037;DHT22;9651;49.138;8.900;2023-09-08T09:41:36;35.20;88.90
19037;DHT22;9651;49.138;8.900;2023-09-08T09:45:39;35.90;87.80
19037;DHT22;9651;49.138;8.900;2023-09-08T09:49:46;36.70;85.00
19037;DHT22;9651;49.138;8.900;2023-09-08T09:53:56;37.60;82.90
19037;DHT22;9651;49.138;8.900;2023-09-08T09:57:59;38.30;80.10
19037;DHT22;9651;49.138;8.900;2023-09-08T10:02:04;38.10;77.90
19037;DHT22;9651;49.138;8.900;2023-09-08T10:06:07;38.50;77.00
19037;DHT22;9651;49.138;8.900;2023-09-08T10:10:10;39.20;74.70
19037;DHT22;9651;49.138;8.900;2023-09-08T10:14:12;39.80;72.10
19037;DHT22;9651;49.138;8.900;2023-09-08T10:18:16;40.00;70.90
19037;DHT22;9651;49.138;8.900;2023-09-08T10:22:25;40.20;67.90
19037;DHT22;9651;49.138;8.900;2023-09-08T10:26:30;40.60;67.40
19037;DHT22;9651;49.138;8.900;2023-09-08T10:30:34;40.60;64.80
19037;DHT22;9651;49.138;8.900;2023-09-08T10:34:36;40.60;65.50
19037;DHT22;9651;49.138;8.900;2023-09-08T10:38:40;40.40;63.80
19037;DHT22;9651;49.138;8.900;2023-09-08T10:42:45;40.90;63.40
19037;DHT22;9651;49.138;8.900;2023-09-08T10:46:47;41.30;61.40
19037;DHT22;9651;49.138;8.900;2023-09-08T10:50:49;41.30;61.70
19037;DHT22;9651;49.138;8.900;2023-09-08T10:54:55;41.40;59.80
19037;DHT22;9651;49.138;8.900;2023-09-08T10:58:59;41.90;59.60
19037;DHT22;9651;49.138;8.900;2023-09-08T11:03:02;40.70;59.40
19037;DHT22;9651;49.138;8.900;2023-09-08T11:07:04;41.50;59.30
19037;DHT22;9651;49.138;8.900;2023-09-08T11:11:10;42.20;58.20
19037;DHT22;9651;49.138;8.900;2023-09-08T11:15:12;42.90;57.60
19037;DHT22;9651;49.138;8.900;2023-09-08T11:19:14;43.40;55.80
19037;DHT22;9651;49.138;8.900;2023-09-08T11:23:25;43.70;55.80
19037;DHT22;9651;49.138;8.900;2023-09-08T11:27:29;44.20;55.20
19037;DHT22;9651;49.138;8.900;2023-09-08T11:31:31;44.50;53.80
19037;DHT22;9651;49.138;8.900;2023-09-08T11:35:36;42.70;55.80
19037;DHT22;9651;49.138;8.900;2023-09-08T11:39:39;43.60;54.30
19037;DHT22;9651;49.138;8.900;2023-09-08T11:43:42;44.60;53.10
19037;DHT22;9651;49.138;8.900;2023-09-08T11:47:45;45.20;53.10
19037;DHT22;9651;49.138;8.900;2023-09-08T11:51:47;45.30;52.30
19037;DHT22;9651;49.138;8.900;2023-09-08T11:55:49;45.80;51.50
19037;DHT22;9651;49.138;8.900;2023-09-08T11:59:52;45.70;50.70
19037;DHT22;9651;49.138;8.900;2023-09-08T12:03:55;44.80;51.30
19037;DHT22;9651;49.138;8.900;2023-09-08T12:07:58;44.70;51.00
19037;DHT22;9651;49.138;8.900;2023-09-08T12:12:03;45.10;51.20
19037;DHT22;9651;49.138;8.900;2023-09-08T12:16:18;45.10;50.70
19037;DHT22;9651;49.138;8.900;2023-09-08T12:20:21;46.10;50.30
19037;DHT22;9651;49.138;8.900;2023-09-08T12:24:47;46.70;49.30
19037;DHT22;9651;49.138;8.900;2023-09-08T12:28:49;46.90;49.00
19037;DHT22;9651;49.138;8.900;2023-09-08T12:32:53;47.20;48.80
19037;DHT22;9651;49.138;8.900;2023-09-08T12:36:55;47.00;48.40
19037;DHT22;9651;49.138;8.900;2023-09-08T12:40:57;47.70;48.10
19037;DHT22;9651;49.138;8.900;2023-09-08T12:44:59;48.20;47.50
19037;DHT22;9651;49.138;8.900;2023-09-08T12:49:03;47.00;46.90
19037;DHT22;9651;49.138;8.900;2023-09-08T12:53:05;46.00;47.70
19037;DHT22;9651;49.138;8.900;2023-09-08T12:57:07;45.00;47.90
19037;DHT22;9651;49.138;8.900;2023-09-08T13:01:08;45.60;47.80
19037;DHT22;9651;49.138;8.900;2023-09-08T13:05:12;45.10;47.50
19037;DHT22;9651;49.138;8.900;2023-09-08T13:09:13;45.80;48.00
19037;DHT22;9651;49.138;8.900;2023-09-08T13:13:15;46.70;47.50
19037;DHT22;9651;49.138;8.900;2023-09-08T13:17:17;47.10;47.20
19037;DHT22;9651;49.138;8.900;2023-09-08T13:21:20;44.70;47.10
19037;DHT22;9651;49.138;8.900;2023-09-08T13:25:22;44.10;47.90
19037;DHT22;9651;49.138;8.900;2023-09-08T13:29:24;42.00;49.10
19037;DHT22;9651;49.138;8.900;2023-09-08T13:33:27;39.90;50.60
19037;DHT22;9651;49.138;8.900;2023-09-08T13:37:31;38.00;52.60
19037;DHT22;9651;49.138;8.900;2023-09-08T13:41:50;36.40;54.20
19037;DHT22;9651;49.138;8.900;2023-09-08T13:45:52;35.40;55.10
19037;DHT22;9651;49.138;8.900;2023-09-08T13:49:54;34.50;56.10
19037;DHT22;9651;49.138;8.900;2023-09-08T13:53:58;33.70;57.10
19037;DHT22;9651;49.138;8.900;2023-09-08T13:57:59;32.90;58.90
19037;DHT22;9651;49.138;8.900;2023-09-08T14:02:02;32.50;59.30
19037;DHT22;9651;49.138;8.900;2023-09-08T14:06:05;32.50;59.40
19037;DHT22;9651;49.138;8.900;2023-09-08T14:10:08;32.30;59.40
19037;DHT22;9651;49.138;8.900;2023-09-08T14:14:10;32.20;59.40
19037;DHT22;9651;49.138;8.900;2023-09-08T14:18:12;32.00;60.00
19037;DHT22;9651;49.138;8.900;2023-09-08T14:22:15;31.70;60.40
19037;DHT22;9651;49.138;8.900;2023-09-08T14:26:18;31.60;60.40
19037;DHT22;9651;49.138;8.900;2023-09-08T14:30:21;31.40;60.90
19037;DHT22;9651;49.138;8.900;2023-09-08T14:34:23;31.40;61.30
19037;DHT22;9651;49.138;8.900;2023-09-08T14:38:25;31.40;61.30
19037;DHT22;9651;49.138;8.900;2023-09-08T14:42:28;31.20;61.50
19037;DHT22;9651;49.138;8.900;2023-09-08T14:46:30;31.30;62.20
19037;DHT22;9651;49.138;8.900;2023-09-08T14:50:32;31.20;62.20
19037;DHT22;9651;49.138;8.900;2023-09-08T14:54:34;31.10;62.30
19037;DHT22;9651;49.138;8.900;2023-09-08T14:58:37;31.10;62.50
19037;DHT22;9651;49.138;8.900;2023-09-08T15:02:39;31.00;62.50
19037;DHT22;9651;49.138;8.900;2023-09-08T15:06:41;30.90;63.20
19037;DHT22;9651;49.138;8.900;2023-09-08T15:10:43;30.80;63.70
19037;DHT22;9651;49.138;8.900;2023-09-08T15:14:46;30.80;63.60
19037;DHT22;9651;49.138;8.900;2023-09-08T15:18:48;30.90;64.80
19037;DHT22;9651;49.138;8.900;2023-09-08T15:22:51;31.00;65.20
19037;DHT22;9651;49.138;8.900;2023-09-08T15:26:53;31.00;64.60
19037;DHT22;9651;49.138;8.900;2023-09-08T15:30:56;31.10;64.00
19037;DHT22;9651;49.138;8.900;2023-09-08T15:34:58;31.20;64.90
19037;DHT22;9651;49.138;8.900;2023-09-08T15:39:00;31.40;65.40
19037;DHT22;9651;49.138;8.900;2023-09-08T15:43:01;31.90;65.10
19037;DHT22;9651;49.138;8.900;2023-09-08T15:47:05;33.20;63.00
19037;DHT22;9651;49.138;8.900;2023-09-08T15:51:07;34.50;60.50
19037;DHT22;9651;49.138;8.900;2023-09-08T15:55:10;35.40;59.90
19037;DHT22;9651;49.138;8.900;2023-09-08T15:59:13;35.90;59.60
19037;DHT22;9651;49.138;8.900;2023-09-08T16:03:17;36.40;58.60
19037;DHT22;9651;49.138;8.900;2023-09-08T16:07:18;36.50;58.00
19037;DHT22;9651;49.138;8.900;2023-09-08T16:11:20;35.80;57.90
19037;DHT22;9651;49.138;8.900;2023-09-08T16:15:22;35.70;58.30
19037;DHT22;9651;49.138;8.900;2023-09-08T16:19:26;35.60;60.00
19037;DHT22;9651;49.138;8.900;2023-09-08T16:23:29;35.40;60.30
19037;DHT22;9651;49.138;8.900;2023-09-08T16:27:31;35.00;58.70
19037;DHT22;9651;49.138;8.900;2023-09-08T16:31:33;34.70;60.60
19037;DHT22;9651;49.138;8.900;2023-09-08T16:35:36;34.30;61.90
19037;DHT22;9651;49.138;8.900;2023-09-08T16:39:38;34.00;61.20
19037;DHT22;9651;49.138;8.900;2023-09-08T16:43:40;33.60;62.20
19037;DHT22;9651;49.138;8.900;2023-09-08T16:47:42;33.00;62.30
19037;DHT22;9651;49.138;8.900;2023-09-08T16:51:45;32.40;63.50
19037;DHT22;9651;49.138;8.900;2023-09-08T16:55:47;31.60;66.30
19037;DHT22;9651;49.138;8.900;2023-09-08T16:59:49;31.00;66.60
19037;DHT22;9651;49.138;8.900;2023-09-08T17:03:51;30.60;67.60
19037;DHT22;9651;49.138;8.900;2023-09-08T17:07:54;30.30;67.20
19037;DHT22;9651;49.138;8.900;2023-09-08T17:11:57;30.00;67.60
19037;DHT22;9651;49.138;8.900;2023-09-08T17:15:59;29.70;68.30
19037;DHT22;9651;49.138;8.900;2023-09-08T17:20:00;29.50;69.40
19037;DHT22;9651;49.138;8.900;2023-09-08T17:24:04;28.90;73.30
19037;DHT22;9651;49.138;8.900;2023-09-08T17:28:06;28.20;76.20
19037;DHT22;9651;49.138;8.900;2023-09-08T17:32:08;27.60;78.90
19037;DHT22;9651;49.138;8.900;2023-09-08T17:36:11;27.00;81.10
19037;DHT22;9651;49.138;8.900;2023-09-08T17:40:14;26.60;83.20
19037;DHT22;9651;49.138;8.900;2023-09-08T17:44:16;26.40;84.60
19037;DHT22;9651;49.138;8.900;2023-09-08T17:48:18;26.20;86.80
19037;DHT22;9651;49.138;8.900;2023-09-08T17:52:20;26.00;88.60
19037;DHT22;9651;49.138;8.900;2023-09-08T17:56:23;25.80;90.10
19037;DHT22;9651;49.138;8.900;2023-09-08T18:00:25;25.60;91.10
19037;DHT22;9651;49.138;8.900;2023-09-08T18:04:27;25.50;92.10
19037;DHT22;9651;49.138;8.900;2023-09-08T18:08:29;25.30;92.90
19037;DHT22;9651;49.138;8.900;2023-09-08T18:12:32;25.10;93.90
19037;DHT22;9651;49.138;8.900;2023-09-08T18:16:34;25.00;94.80
19037;DHT22;9651;49.138;8.900;2023-09-08T18:20:36;24.90;96.30
19037;DHT22;9651;49.138;8.900;2023-09-08T18:24:38;24.60;98.40
19037;DHT22;9651;49.138;8.900;2023-09-08T18:28:41;24.40;99.90
19037;DHT22;9651;49.138;8.900;2023-09-08T18:32:43;24.10;99.90
19037;DHT22;9651;49.138;8.900;2023-09-08T18:36:44;23.90;99.90
19037;DHT22;9651;49.138;8.900;2023-09-08T18:40:47;23.80;99.90
19037;DHT22;9651;49.138;8.900;2023-09-08T18:44:50;23.70;99.90
19037;DHT22;9651;49.138;8.900;2023-09-08T18:48:52;23.50;99.90
19037;DHT22;9651;49.138;8.900;2023-09-08T18:52:54;23.30;99.90
19037;DHT22;9651;49.138;8.900;2023-09-08T18:56:56;23.20;99.90
19037;DHT22;9651;49.138;8.900;2023-09-08T19:01:03;23.00;99.90
19037;DHT22;9651;49.138;8.900;2023-09-08T19:05:05;22.90;99.90
19037;DHT22;9651;49.138;8.900;2023-09-08T19:09:07;22.80;99.90
19037;DHT22;9651;49.138;8.900;2023-09-08T19:13:09;22.70;99.90
19037;DHT22;9651;49.138;8.900;2023-09-08T19:17:12;22.60;99.90
19037;DHT22;9651;49.138;8.900;2023-09-08T19:21:14;22.50;99.90
19037;DHT22;9651;49.138;8.900;2023-09-08T19:25:16;22.40;99.90
19037;DHT22;9651;49.138;8.900;2023-09-08T19:29:18;22.40;99.90
19037;DHT22;9651;49.138;8.900;2023-09-08T19:33:21;22.30;99.90
19037;DHT22;9651;49.138;8.900;2023-09-08T19:37:23;22.20;99.90
19037;DHT22;9651;49.138;8.900;2023-09-08T19:41:25;22.10;99.90
19037;DHT22;9651;49.138;8.900;2023-09-08T19:45:27;22.00;99.90
19037;DHT22;9651;49.138;8.900;2023-09-08T19:49:32;21.80;99.90
19037;DHT22;9651;49.138;8.900;2023-09-08T19:53:34;21.60;99.90
19037;DHT22;9651;49.138;8.900;2023-09-08T19:57:35;21.60;99.90
19037;DHT22;9651;49.138;8.900;2023-09-08T20:01:37;21.50;99.90
19037;DHT22;9651;49.138;8.900;2023-09-08T20:05:43;21.50;99.90
19037;DHT22;9651;49.138;8.900;2023-09-08T20:09:44;21.40;99.90
19037;DHT22;9651;49.138;8.900;2023-09-08T20:13:47;21.30;99.90
19037;DHT22;9651;49.138;8.900;2023-09-08T20:17:48;21.30;99.90
19037;DHT22;9651;49.138;8.900;2023-09-08T20:21:52;21.20;99.90
19037;DHT22;9651;49.138;8.900;2023-09-08T20:25:55;21.10;99.90
19037;DHT22;9651;49.138;8.900;2023-09-08T20:29:57;21.00;99.90
19037;DHT22;9651;49.138;8.900;2023-09-08T20:34:00;20.80;99.90
19037;DHT22;9651;49.138;8.900;2023-09-08T20:38:04;20.80;99.90
19037;DHT22;9651;49.138;8.900;2023-09-08T20:42:06;20.90;99.90
19037;DHT22;9651;49.138;8.900;2023-09-08T20:46:09;21.00;99.90
19037;DHT22;9651;49.138;8.900;2023-09-08T20:50:11;20.90;99.90
19037;DHT22;9651;49.138;8.900;2023-09-08T20:54:15;20.70;99.90
19037;DHT22;9651;49.138;8.900;2023-09-08T20:58:17;20.70;99.90
19037;DHT22;9651;49.138;8.900;2023-09-08T21:02:18;20.70;99.90
19037;DHT22;9651;49.138;8.900;2023-09-08T21:06:20;20.60;99.90
19037;DHT22;9651;49.138;8.900;2023-09-08T21:10:24;20.50;99.90
19037;DHT22;9651;49.138;8.900;2023-09-08T21:14:26;20.50;99.90
19037;DHT22;9651;49.138;8.900;2023-09-08T21:18:27;20.50;99.90
19037;DHT22;9651;49.138;8.900;2023-09-08T21:22:29;20.40;99.90
19037;DHT22;9651;49.138;8.900;2023-09-08T21:26:33;20.30;99.90
19037;DHT22;9651;49.138;8.900;2023-09-08T21:30:34;20.20;99.90
19037;DHT22;9651;49.138;8.900;2023-09-08T21:34:36;20.20;99.90
19037;DHT22;9651;49.138;8.900;2023-09-08T21:38:38;20.20;99.90
19037;DHT22;9651;49.138;8.900;2023-09-08T21:42:41;20.20;99.90
19037;DHT22;9651;49.138;8.900;2023-09-08T21:46:43;20.20;99.90
19037;DHT22;9651;49.138;8.900;2023-09-08T21:50:45;20.20;99.90
19037;DHT22;9651;49.138;8.900;2023-09-08T21:54:47;19.90;99.90
19037;DHT22;9651;49.138;8.900;2023-09-08T21:58:50;19.80;99.90
19037;DHT22;9651;49.138;8.900;2023-09-08T22:02:52;19.70;99.90
19037;DHT22;9651;49.138;8.900;2023-09-08T22:06:54;19.60;99.90
19037;DHT22;9651;49.138;8.900;2023-09-08T22:11:01;19.50;99.90
19037;DHT22;9651;49.138;8.900;2023-09-08T22:15:06;19.40;99.90
19037;DHT22;9651;49.138;8.900;2023-09-08T22:19:08;19.30;99.90
19037;DHT22;9651;49.138;8.900;2023-09-08T22:23:10;19.20;99.90
19037;DHT22;9651;49.138;8.900;2023-09-08T22:27:13;19.10;99.90
19037;DHT22;9651;49.138;8.900;2023-09-08T22:31:16;19.20;99.90
19037;DHT22;9651;49.138;8.900;2023-09-08T22:35:18;19.10;99.90
19037;DHT22;9651;49.138;8.900;2023-09-08T22:39:20;19.10;99.90
19037;DHT22;9651;49.138;8.900;2023-09-08T22:43:22;19.10;99.90
19037;DHT22;9651;49.138;8.900;2023-09-08T22:47:25;19.10;99.90
19037;DHT22;9651;49.138;8.900;2023-09-08T22:51:27;19.10;99.90
19037;DHT22;9651;49.138;8.900;2023-09-08T22:55:29;19.10;99.90
19037;DHT22;9651;49.138;8.900;2023-09-08T22:59:31;19.10;99.90
19037;DHT22;9651;49.138;8.900;2023-09-08T23:03:34;19.00;99.90
19037;DHT22;9651;49.138;8.900;2023-09-08T23:07:36;19.00;99.90
19037;DHT22;9651;49.138;8.900;2023-09-08T23:11:37;19.00;99.90
19037;DHT22;9651;49.138;8.900;2023-09-08T23:15:39;18.90;99.90
19037;DHT22;9651;49.138;8.900;2023-09-08T23:19:42;18.80;99.90
19037;DHT22;9651;49.138;8.900;2023-09-08T23:23:44;18.80;99.90
19037;DHT22;9651;49.138;8.900;2023-09-08T23:27:46;18.90;99.90
19037;DHT22;9651;49.138;8.900;2023-09-08T23:31:48;19.00;99.90
19037;DHT22;9651;49.138;8.900;2023-09-08T23:35:51;19.00;99.90
19037;DHT22;9651;49.138;8.900;2023-09-08T23:39:53;19.00;99.90
19037;DHT22;9651;49.138;8.900;2023-09-08T23:43:55;19.00;99.90
19037;DHT22;9651;49.138;8.900;2023-09-08T23:47:57;19.00;99.90
19037;DHT22;9651;49.138;8.900;2023-09-08T23:52:00;19.00;99.90
19037;DHT22;9651;49.138;8.900;2023-09-08T23:56:02;19.00;99.90
